Time;durP1;ratioP1;P1;durP2;ratioP2;P2;SDS_P1;SDS_P2;PMS_P1;PMS_P2;Temp;Humidity;BMP_temperature;BMP_pressure;BME280_temperature;BME280_humidity;BME280_pressure;Samples;Min_cycle;Max_cycle;Signal;HPM_P1;HPM_P2
2022/06/17 00:01:15;;;;;;;4.80;4.60;;;;;;;-143.83;100.00;62900.06;5032206;28;20131;-59
2022/06/17 00:03:41;;;;;;;4.90;4.70;;;;;;;-143.83;100.00;62900.06;5032586;28;20029;-59
2022/06/17 00:06:12;;;;;;;5.00;4.80;;;;;;;-143.83;100.00;62900.06;5032632;28;20060;-58
2022/06/17 00:08:42;;;;;;;4.90;4.70;;;;;;;-143.83;100.00;62900.06;5032982;28;20037;-58
2022/06/17 00:11:16;;;;;;;4.60;4.40;;;;;;;-143.83;100.00;62900.06;5026260;28;20026;-57
2022/06/17 00:13:41;;;;;;;5.00;4.80;;;;;;;-143.83;100.00;62900.06;5028791;28;20105;-58
2022/06/17 00:16:15;;;;;;;4.75;4.55;;;;;;;-143.83;100.00;62900.06;5030302;28;20596;-59
2022/06/17 00:18:41;;;;;;;4.80;4.60;;;;;;;-143.83;100.00;62900.06;5032160;28;20040;-59
2022/06/17 00:21:16;;;;;;;4.90;4.70;;;;;;;-143.83;100.00;62900.06;5032140;28;20053;-59
2022/06/17 00:23:42;;;;;;;4.70;4.50;;;;;;;-143.83;100.00;62900.06;5032029;28;20036;-59
2022/06/17 00:26:10;;;;;;;4.90;4.70;;;;;;;-143.83;100.00;62900.06;5031775;28;20047;-59
2022/06/17 00:28:35;;;;;;;4.85;4.65;;;;;;;-143.83;100.00;62900.06;5032248;28;20086;-59
2022/06/17 00:31:01;;;;;;;4.70;4.50;;;;;;;-143.83;100.00;62900.06;5031853;28;20029;-58
2022/06/17 00:33:26;;;;;;;4.72;4.53;;;;;;;-143.83;100.00;62900.06;5029869;28;20032;-59
2022/06/17 00:35:54;;;;;;;4.80;4.60;;;;;;;-143.83;100.00;62900.06;5031711;28;20045;-59
2022/06/17 00:38:25;;;;;;;4.82;4.63;;;;;;;-143.83;100.00;62900.06;5030760;28;20033;-59
2022/06/17 00:40:53;;;;;;;5.00;4.80;;;;;;;-143.83;100.00;62900.06;5031788;28;20029;-59
2022/06/17 00:43:34;;;;;;;4.82;4.63;;;;;;;-143.83;100.00;62900.06;5032116;28;20104;-58
2022/06/17 00:46:14;;;;;;;4.88;4.68;;;;;;;-143.83;100.00;62900.06;5031077;28;20065;-58
2022/06/17 00:48:57;;;;;;;4.70;4.50;;;;;;;-143.83;100.00;62900.06;5028829;28;20049;-58
2022/06/17 00:51:27;;;;;;;4.90;4.70;;;;;;;-143.83;100.00;62900.06;5031498;28;20029;-59
2022/06/17 00:53:56;;;;;;;4.82;4.63;;;;;;;-143.83;100.00;62900.06;5025198;28;20032;-58
2022/06/17 00:56:30;;;;;;;4.82;4.63;;;;;;;-143.83;100.00;62900.06;5018553;28;20025;-59
2022/06/17 00:59:04;;;;;;;4.88;4.68;;;;;;;-143.83;100.00;62900.06;5031152;28;20030;-59
2022/06/17 01:01:56;;;;;;;4.80;4.60;;;;;;;-143.83;100.00;62900.06;5035774;28;20033;-59
2022/06/17 01:04:31;;;;;;;4.80;4.60;;;;;;;-143.83;100.00;62900.06;5037381;28;20078;-58
2022/06/17 01:07:09;;;;;;;4.60;4.40;;;;;;;-143.83;100.00;62900.06;5036983;28;20056;-58
2022/06/17 01:12:25;;;;;;;4.80;4.60;;;;;;;-143.83;100.00;62900.06;5035884;28;20036;-59
2022/06/17 01:14:52;;;;;;;4.80;4.60;;;;;;;-143.83;100.00;62900.06;5024354;28;20432;-58
2022/06/17 01:17:18;;;;;;;4.70;4.50;;;;;;;-143.83;100.00;62900.06;5038990;28;20022;-58
2022/06/17 01:19:50;;;;;;;4.85;4.65;;;;;;;-143.83;100.00;62900.06;5033864;28;20148;-59
2022/06/17 01:22:38;;;;;;;4.80;4.60;;;;;;;-143.83;100.00;62900.06;5036945;28;20018;-59
2022/06/17 01:25:08;;;;;;;4.75;4.55;;;;;;;-143.83;100.00;62900.06;5037475;28;20489;-59
2022/06/17 01:27:40;;;;;;;4.80;4.60;;;;;;;-143.83;100.00;62900.06;5037968;28;20488;-59
2022/06/17 01:30:09;;;;;;;4.90;4.70;;;;;;;-143.83;100.00;62900.06;5038215;28;20104;-59
2022/06/17 01:32:45;;;;;;;4.70;4.50;;;;;;;-143.83;100.00;62900.06;5037618;28;20048;-59
2022/06/17 01:35:11;;;;;;;4.78;4.57;;;;;;;-143.83;100.00;62900.06;5037708;28;20481;-59
2022/06/17 01:37:37;;;;;;;4.78;4.57;;;;;;;-143.83;100.00;62900.06;5036970;28;20036;-60
2022/06/17 01:40:04;;;;;;;4.80;4.60;;;;;;;-143.83;100.00;62900.06;5035522;28;20656;-60
2022/06/17 01:42:31;;;;;;;4.70;4.50;;;;;;;-143.83;100.00;62900.06;5025865;28;20044;-59
2022/06/17 01:44:57;;;;;;;4.88;4.68;;;;;;;-143.83;100.00;62900.06;5028927;28;20022;-58
2022/06/17 01:47:27;;;;;;;4.70;4.50;;;;;;;-143.83;100.00;62900.06;5036967;28;20100;-58
2022/06/17 01:50:00;;;;;;;4.80;4.60;;;;;;;-143.83;100.00;62900.06;5038373;28;20064;-58
2022/06/17 01:52:31;;;;;;;4.90;4.70;;;;;;;-143.83;100.00;62900.06;5037713;28;20412;-59
2022/06/17 01:55:26;;;;;;;4.88;4.68;;;;;;;-143.83;100.00;62900.06;5037008;28;20064;-59
2022/06/17 01:57:55;;;;;;;;;;;;;;;-143.83;100.00;62900.06;5037325;28;20038;-58
2022/06/17 02:00:25;;;;;;;4.72;4.53;;;;;;;-143.83;100.00;62900.06;5037590;28;20039;-58
2022/06/17 02:03:02;;;;;;;4.78;4.57;;;;;;;-143.83;100.00;62900.06;5036766;28;20025;-59
2022/06/17 02:05:30;;;;;;;4.70;4.50;;;;;;;-143.83;100.00;62900.06;5037902;28;20059;-58
2022/06/17 02:07:58;;;;;;;4.78;4.57;;;;;;;-143.83;100.00;62900.06;5037283;28;20036;-60
2022/06/17 02:10:29;;;;;;;4.82;4.63;;;;;;;-143.83;100.00;62900.06;5031938;28;20040;-60
2022/06/17 02:12:56;;;;;;;4.80;4.60;;;;;;;-143.83;100.00;62900.06;5034422;28;20040;-59
2022/06/17 02:15:23;;;;;;;4.85;4.65;;;;;;;-143.83;100.00;62900.06;5033579;28;20021;-60
2022/06/17 02:17:50;;;;;;;4.75;4.55;;;;;;;-143.83;100.00;62900.06;5034368;28;20497;-59
2022/06/17 02:20:17;;;;;;;4.80;4.60;;;;;;;-143.83;100.00;62900.06;5033446;28;20108;-59
2022/06/17 02:22:44;;;;;;;4.90;4.70;;;;;;;-143.83;100.00;62900.06;5034422;28;20036;-59
2022/06/17 02:25:15;;;;;;;4.82;4.63;;;;;;;-143.83;100.00;62900.06;5036791;28;20033;-59
2022/06/17 02:27:43;;;;;;;4.80;4.60;;;;;;;-143.83;100.00;62900.06;5034569;28;20087;-59
2022/06/17 02:30:10;;;;;;;4.80;4.60;;;;;;;-143.83;100.00;62900.06;5029499;28;20085;-59
2022/06/17 02:32:37;;;;;;;4.72;4.53;;;;;;;-143.83;100.00;62900.06;5033280;28;20026;-59
2022/06/17 02:35:05;;;;;;;5.00;4.80;;;;;;;-143.83;100.00;62900.06;5033958;28;20016;-59
2022/06/17 02:37:32;;;;;;;4.78;4.57;;;;;;;-143.83;100.00;62900.06;5032188;28;20033;-59
2022/06/17 02:40:00;;;;;;;4.90;4.70;;;;;;;-143.83;100.00;62900.06;5033416;28;20025;-59
2022/06/17 02:42:35;;;;;;;5.00;4.80;;;;;;;-143.83;100.00;62900.06;5030221;28;20026;-59
2022/06/17 02:45:06;;;;;;;;;;;;;;;-143.83;100.00;62900.06;5025323;28;20485;-59
2022/06/17 02:47:32;;;;;;;5.00;4.80;;;;;;;-143.83;100.00;62900.06;5032373;28;20316;-59
2022/06/17 02:49:59;;;;;;;5.00;4.80;;;;;;;-143.83;100.00;62900.06;5033874;28;20032;-59
2022/06/17 02:52:37;;;;;;;4.93;4.72;;;;;;;-143.83;100.00;62900.06;5033803;28;20481;-59
2022/06/17 02:55:18;;;;;;;5.00;4.80;;;;;;;-143.83;100.00;62900.06;5033792;28;20076;-59
2022/06/17 02:57:47;;;;;;;5.20;5.00;;;;;;;-143.83;100.00;62900.06;5038312;28;20029;-59
2022/06/17 03:00:17;;;;;;;5.18;4.97;;;;;;;-143.83;100.00;62900.06;5031061;28;20017;-59
2022/06/17 03:02:50;;;;;;;5.10;4.90;;;;;;;-143.83;100.00;62900.06;5033825;28;20442;-59
2022/06/17 03:05:25;;;;;;;5.40;5.20;;;;;;;-143.83;100.00;62900.06;5032618;28;20029;-59
2022/06/17 03:07:52;;;;;;;5.30;5.10;;;;;;;-143.83;100.00;62900.06;5033514;28;20028;-59
2022/06/17 03:10:23;;;;;;;5.50;5.30;;;;;;;-143.83;100.00;62900.06;5033632;28;20420;-59
2022/06/17 03:12:56;;;;;;;5.47;5.28;;;;;;;-143.83;100.00;62900.06;5020556;28;20634;-59
2022/06/17 03:15:23;;;;;;;5.53;5.32;;;;;;;-143.83;100.00;62900.06;5032819;28;20021;-59
2022/06/17 03:17:48;;;;;;;5.60;5.40;;;;;;;-143.83;100.00;62900.06;5025926;28;20048;-59
2022/06/17 03:20:24;;;;;;;5.47;5.28;;;;;;;-143.83;100.00;62900.06;5033223;28;20029;-58
2022/06/17 03:22:55;;;;;;;5.60;5.40;;;;;;;-143.83;100.00;62900.06;5032165;28;20056;-59
2022/06/17 03:25:28;;;;;;;5.70;5.50;;;;;;;-143.83;100.00;62900.06;5032795;28;20021;-60
2022/06/17 03:27:59;;;;;;;5.55;5.35;;;;;;;-143.83;100.00;62900.06;5033084;28;20105;-58
2022/06/17 03:30:30;;;;;;;5.65;5.45;;;;;;;-143.83;100.00;62900.06;5030306;28;20025;-59
2022/06/17 03:33:17;;;;;;;5.78;5.57;;;;;;;-143.83;100.00;62900.06;5030944;28;20025;-59
2022/06/17 03:35:47;;;;;;;6.00;5.80;;;;;;;-143.83;100.00;62900.06;5033156;28;20036;-59
2022/06/17 03:38:40;;;;;;;5.60;5.40;;;;;;;-143.83;100.00;62900.06;5026605;28;20029;-58
2022/06/17 03:41:20;;;;;;;5.87;5.67;;;;;;;-143.83;100.00;62900.06;5022844;28;20083;-59
2022/06/17 03:43:55;;;;;;;5.93;5.72;;;;;;;-143.83;100.00;62900.06;5020790;28;20040;-58
2022/06/17 03:46:23;;;;;;;6.00;5.80;;;;;;;-143.83;100.00;62900.06;5027071;28;20598;-59
2022/06/17 03:48:58;;;;;;;6.03;5.82;;;;;;;-143.83;100.00;62900.06;5043176;28;20081;-58
2022/06/17 03:51:25;;;;;;;6.10;5.90;;;;;;;-143.83;100.00;62900.06;5041378;28;20075;-60
2022/06/17 03:53:52;;;;;;;5.90;5.70;;;;;;;-143.83;100.00;62900.06;5035121;28;20370;-59
2022/06/17 03:56:22;;;;;;;6.00;5.80;;;;;;;-143.83;100.00;62900.06;5032542;28;20111;-59
2022/06/17 03:58:49;;;;;;;6.10;5.90;;;;;;;-143.83;100.00;62900.06;5039445;28;20037;-60
2022/06/17 04:01:31;;;;;;;6.03;5.82;;;;;;;-143.83;100.00;62900.06;5025502;28;20432;-59
2022/06/17 04:04:01;;;;;;;6.10;5.90;;;;;;;-143.83;100.00;62900.06;5032013;28;20362;-59
2022/06/17 04:06:36;;;;;;;5.80;5.60;;;;;;;-143.83;100.00;62900.06;5036261;28;20151;-59
2022/06/17 04:09:17;;;;;;;5.85;5.65;;;;;;;-143.83;100.00;62900.06;5027154;28;20083;-59
2022/06/17 04:11:46;;;;;;;6.00;5.80;;;;;;;-143.83;100.00;62900.06;5020579;28;20088;-56
2022/06/17 04:14:20;;;;;;;5.78;5.57;;;;;;;-143.83;100.00;62900.06;5030155;28;20044;-58
2022/06/17 04:16:57;;;;;;;5.90;5.70;;;;;;;-143.83;100.00;62900.06;5032435;28;20400;-57
2022/06/17 04:19:25;;;;;;;5.90;5.70;;;;;;;-143.83;100.00;62900.06;5023587;28;20113;-57
2022/06/17 04:21:55;;;;;;;5.82;5.63;;;;;;;-143.83;100.00;62900.06;5027590;28;20053;-57
2022/06/17 04:24:24;;;;;;;5.95;5.75;;;;;;;-143.83;100.00;62900.06;5040786;28;20393;-58
2022/06/17 04:26:57;;;;;;;5.78;5.57;;;;;;;-143.83;100.00;62900.06;5031421;28;20030;-58
2022/06/17 04:29:30;;;;;;;5.95;5.75;;;;;;;-143.83;100.00;62900.06;5026870;28;20022;-58
2022/06/17 04:32:22;;;;;;;6.10;5.90;;;;;;;-143.83;100.00;62900.06;5028470;28;20037;-58
2022/06/17 04:34:48;;;;;;;6.20;6.00;;;;;;;-143.83;100.00;62900.06;5018822;28;20045;-58
2022/06/17 04:37:20;;;;;;;6.00;5.80;;;;;;;-143.83;100.00;62900.06;5035965;28;20028;-58
2022/06/17 04:39:57;;;;;;;6.05;5.85;;;;;;;-143.83;100.00;62900.06;5027769;28;20473;-58
2022/06/17 04:42:30;;;;;;;6.45;6.15;;;;;;;-143.83;100.00;62900.06;5024833;28;20036;-58
2022/06/17 04:44:55;;;;;;;6.10;5.90;;;;;;;-143.83;100.00;62900.06;5030009;28;20029;-58
2022/06/17 04:47:22;;;;;;;6.10;5.90;;;;;;;-143.83;100.00;62900.06;5028291;28;20031;-58
2022/06/17 04:50:00;;;;;;;6.10;5.90;;;;;;;-143.83;100.00;62900.06;5022755;28;20050;-59
2022/06/17 04:52:28;;;;;;;6.00;5.80;;;;;;;-143.83;100.00;62900.06;5030282;28;20112;-60
2022/06/17 04:54:58;;;;;;;6.07;5.88;;;;;;;-143.83;100.00;62900.06;5030161;28;20082;-59
2022/06/17 04:57:24;;;;;;;6.05;5.85;;;;;;;-143.83;100.00;62900.06;5030648;28;20022;-58
2022/06/17 04:59:50;;;;;;;6.10;5.90;;;;;;;-143.83;100.00;62900.06;5029779;28;20088;-59
2022/06/17 05:02:22;;;;;;;6.10;5.90;;;;;;;-143.83;100.00;62900.06;5029661;28;20033;-59
2022/06/17 05:04:50;;;;;;;6.00;5.80;;;;;;;-143.83;100.00;62900.06;5026886;28;20030;-58
2022/06/17 05:07:16;;;;;;;6.18;5.97;;;;;;;-143.83;100.00;62900.06;5034601;28;20033;-59
2022/06/17 05:09:47;;;;;;;6.45;6.15;;;;;;;-143.83;100.00;62900.06;5031463;28;20064;-58
2022/06/17 05:12:21;;;;;;;6.00;5.80;;;;;;;-143.83;100.00;62900.06;5031168;28;20041;-58
2022/06/17 05:14:52;;;;;;;6.20;6.00;;;;;;;-143.83;100.00;62900.06;5028894;28;20207;-58
2022/06/17 05:17:19;;;;;;;6.30;6.05;;;;;;;-143.83;100.00;62900.06;5033952;28;20037;-59
2022/06/17 05:19:45;;;;;;;6.25;6.00;;;;;;;-143.83;100.00;62900.06;5029717;28;20033;-59
2022/06/17 05:22:20;;;;;;;6.10;5.90;;;;;;;-143.83;100.00;62900.06;5028085;28;20089;-58
2022/06/17 05:24:46;;;;;;;6.50;6.20;;;;;;;-143.83;100.00;62900.06;5016981;28;20216;-59
2022/06/17 05:27:12;;;;;;;6.28;6.07;;;;;;;-143.83;100.00;62900.06;5024969;28;20072;-59
2022/06/17 05:29:37;;;;;;;6.30;6.05;;;;;;;-143.83;100.00;62900.06;5021096;28;20033;-60
2022/06/17 05:32:04;;;;;;;6.40;6.10;;;;;;;-143.83;100.00;62900.06;5028538;28;20071;-60
2022/06/17 05:34:29;;;;;;;6.50;6.20;;;;;;;-143.83;100.00;62900.06;5026742;28;20076;-59
2022/06/17 05:36:56;;;;;;;6.50;6.20;;;;;;;-143.83;100.00;62900.06;5027555;28;20029;-60
2022/06/17 05:39:23;;;;;;;6.53;6.22;;;;;;;-143.83;100.00;62900.06;5024993;28;20033;-59
2022/06/17 05:41:48;;;;;;;6.22;6.00;;;;;;;-143.83;100.00;62900.06;5035901;28;20037;-60
2022/06/17 05:44:14;;;;;;;6.22;6.00;;;;;;;-143.83;100.00;62900.06;5026631;28;20040;-60
2022/06/17 05:46:39;;;;;;;6.20;6.00;;;;;;;-143.83;100.00;62900.06;5027238;28;20640;-60
2022/06/17 05:49:05;;;;;;;6.32;6.07;;;;;;;-143.83;100.00;62900.06;5038874;28;20084;-60
2022/06/17 05:51:31;;;;;;;6.72;6.43;;;;;;;-143.83;100.00;62900.06;5033798;28;20029;-60
2022/06/17 05:53:57;;;;;;;6.60;6.30;;;;;;;-143.83;100.00;62900.06;5025507;28;20037;-63
2022/06/17 05:56:22;;;;;;;6.47;6.18;;;;;;;-143.83;100.00;62900.06;5023304;28;20032;-62
2022/06/17 05:58:48;;;;;;;6.50;6.20;;;;;;;-143.83;100.00;62900.06;5019236;28;20033;-61
2022/06/17 06:01:14;;;;;;;6.60;6.30;;;;;;;-143.83;100.00;62900.06;5026419;28;20037;-61
2022/06/17 06:03:40;;;;;;;6.70;6.40;;;;;;;-143.83;100.00;62900.06;5023372;28;20412;-61
2022/06/17 06:06:05;;;;;;;6.30;6.07;;;;;;;-143.83;100.00;62900.06;5024448;28;20030;-61
2022/06/17 06:08:31;;;;;;;6.43;6.13;;;;;;;-143.83;100.00;62900.06;5030804;28;20080;-60
2022/06/17 06:10:57;;;;;;;6.60;6.30;;;;;;;-143.83;100.00;62900.06;5026544;28;20037;-59
2022/06/17 06:13:23;;;;;;;6.50;6.20;;;;;;;-143.83;100.00;62900.06;5020555;28;20083;-60
2022/06/17 06:15:51;;;;;;;6.40;6.10;;;;;;;-143.83;100.00;62900.06;5027163;28;20036;-59
2022/06/17 06:18:21;;;;;;;6.40;6.10;;;;;;;-143.83;100.00;62900.06;5030402;28;20436;-60
2022/06/17 06:20:48;;;;;;;6.30;6.05;;;;;;;-143.83;100.00;62900.06;5038890;28;20489;-59
2022/06/17 06:23:14;;;;;;;6.38;6.10;;;;;;;-143.83;100.00;62900.06;5015857;28;20568;-59
2022/06/17 06:25:40;;;;;;;6.00;5.80;;;;;;;-143.83;100.00;62900.06;5035030;28;20453;-60
2022/06/17 06:28:15;;;;;;;6.43;6.13;;;;;;;-143.83;100.00;62900.06;5032335;28;20029;-60
2022/06/17 06:30:41;;;;;;;6.28;6.00;;;;;;;-143.83;100.00;62900.06;5031564;28;20036;-60
2022/06/17 06:33:09;;;;;;;6.55;6.25;;;;;;;-143.83;100.00;62900.06;5035422;28;20033;-60
2022/06/17 06:35:37;;;;;;;6.10;5.90;;;;;;;-143.83;100.00;62900.06;5029670;28;20078;-59
2022/06/17 06:38:04;;;;;;;6.40;6.10;;;;;;;-143.83;100.00;62900.06;5029650;28;20048;-60
2022/06/17 06:40:31;;;;;;;6.20;6.00;;;;;;;-143.83;100.00;62900.06;5036291;28;20041;-59
2022/06/17 06:42:57;;;;;;;6.45;6.15;;;;;;;-143.83;100.00;62900.06;5031097;28;20033;-59
2022/06/17 06:45:34;;;;;;;6.50;6.20;;;;;;;-143.83;100.00;62900.06;5027291;28;20469;-60
2022/06/17 06:48:04;;;;;;;6.43;6.13;;;;;;;-143.83;100.00;62900.06;5035643;28;20143;-59
2022/06/17 06:50:32;;;;;;;6.53;6.22;;;;;;;-143.83;100.00;62900.06;5030096;28;20487;-60
2022/06/17 06:52:58;;;;;;;6.57;6.28;;;;;;;-143.83;100.00;62900.06;5033361;28;20104;-60
2022/06/17 06:55:24;;;;;;;6.20;6.00;;;;;;;-143.83;100.00;62900.06;5023328;28;20723;-60
2022/06/17 06:57:51;;;;;;;6.43;6.13;;;;;;;-143.83;100.00;62900.06;5024640;28;20507;-60
2022/06/17 07:00:30;;;;;;;6.20;6.00;;;;;;;-143.83;100.00;62900.06;5019895;28;20051;-60
2022/06/17 07:02:55;;;;;;;6.47;6.18;;;;;;;-143.83;100.00;62900.06;5025541;28;20025;-62
2022/06/17 07:05:21;;;;;;;6.28;6.07;;;;;;;-143.83;100.00;62900.06;5033587;28;20039;-62
2022/06/17 07:07:47;;;;;;;6.57;6.28;;;;;;;-143.83;100.00;62900.06;5031943;28;20040;-62
2022/06/17 07:10:16;;;;;;;6.53;6.22;;;;;;;-143.83;100.00;62900.06;5028381;28;20121;-62
2022/06/17 07:12:42;;;;;;;6.60;6.30;;;;;;;-143.83;100.00;62900.06;5027200;28;20038;-62
2022/06/17 07:15:09;;;;;;;5.93;5.72;;;;;;;-143.83;100.00;62900.06;5022334;28;20109;-63
2022/06/17 07:17:35;;;;;;;6.10;5.90;;;;;;;-143.83;100.00;62900.06;5026827;28;20047;-60
2022/06/17 07:20:00;;;;;;;5.85;5.65;;;;;;;-143.83;100.00;62900.06;5029149;28;20030;-62
2022/06/17 07:22:26;;;;;;;5.80;5.60;;;;;;;-143.83;100.00;62900.06;5022082;28;20040;-61
2022/06/17 07:24:51;;;;;;;5.63;5.43;;;;;;;-143.83;100.00;62900.06;5035501;28;20037;-62
2022/06/17 07:27:18;;;;;;;5.95;5.75;;;;;;;-143.83;100.00;62900.06;5029718;28;20039;-63
2022/06/17 07:29:43;;;;;;;6.40;6.10;;;;;;;-143.83;100.00;62900.06;5027931;28;20021;-61
2022/06/17 07:32:09;;;;;;;6.20;6.00;;;;;;;-143.83;100.00;62900.06;5026252;28;20032;-61
2022/06/17 07:34:35;;;;;;;6.50;6.20;;;;;;;-143.83;100.00;62900.06;5021968;28;20029;-62
2022/06/17 07:39:58;;;;;;;6.25;6.05;;;;;;;-143.83;100.00;62900.06;5029407;28;20044;-62
2022/06/17 07:42:37;;;;;;;6.38;6.07;;;;;;;-143.83;100.00;62900.06;5022650;28;20056;-62
2022/06/17 07:45:11;;;;;;;5.93;5.72;;;;;;;-143.83;100.00;62900.06;5031527;28;20132;-63
2022/06/17 07:47:37;;;;;;;5.68;5.47;;;;;;;-143.83;100.00;62900.06;5022136;28;20401;-62
2022/06/17 07:50:08;;;;;;;5.78;5.57;;;;;;;-143.83;100.00;62900.06;5023483;28;20053;-62
2022/06/17 07:52:33;;;;;;;5.80;5.60;;;;;;;-143.83;100.00;62900.06;5031589;28;20388;-62
2022/06/17 07:54:59;;;;;;;5.82;5.63;;;;;;;-143.83;100.00;62900.06;5026983;28;20037;-61
2022/06/17 07:57:24;;;;;;;5.90;5.70;;;;;;;-143.83;100.00;62900.06;5032161;28;20080;-62
2022/06/17 07:59:50;;;;;;;5.90;5.70;;;;;;;-143.83;100.00;62900.06;5036759;28;20060;-63
2022/06/17 08:02:15;;;;;;;6.00;5.80;;;;;;;-143.83;100.00;62900.06;5025105;28;20029;-61
2022/06/17 08:04:41;;;;;;;5.90;5.70;;;;;;;-143.83;100.00;62900.06;5032426;28;20031;-61
2022/06/17 08:07:09;;;;;;;5.90;5.70;;;;;;;-143.83;100.00;62900.06;5021990;28;20033;-61
2022/06/17 08:09:34;;;;;;;5.80;5.60;;;;;;;-143.83;100.00;62900.06;5019509;28;20486;-61
2022/06/17 08:12:03;;;;;;;5.68;5.47;;;;;;;-143.83;100.00;62900.06;5034938;28;20051;-63
2022/06/17 08:14:28;;;;;;;5.82;5.63;;;;;;;-143.83;100.00;62900.06;5026366;28;20037;-62
2022/06/17 08:16:54;;;;;;;5.68;5.47;;;;;;;-143.83;100.00;62900.06;5027006;28;20109;-61
2022/06/17 08:19:20;;;;;;;5.90;5.70;;;;;;;-143.83;100.00;62900.06;5019283;28;20038;-60
2022/06/17 08:21:46;;;;;;;5.63;5.43;;;;;;;-143.83;100.00;62900.06;5037781;28;20029;-60
2022/06/17 08:24:11;;;;;;;5.70;5.50;;;;;;;-143.83;100.00;62900.06;5015662;28;20034;-60
2022/06/17 08:26:37;;;;;;;5.60;5.40;;;;;;;-143.83;100.00;62900.06;5031933;28;20033;-60
2022/06/17 08:29:02;;;;;;;5.70;5.50;;;;;;;-143.83;100.00;62900.06;5021341;28;20033;-60
2022/06/17 08:31:28;;;;;;;5.72;5.53;;;;;;;-143.83;100.00;62900.06;5032945;28;20036;-59
2022/06/17 08:33:53;;;;;;;5.50;5.30;;;;;;;-143.83;100.00;62900.06;5031913;28;20029;-61
2022/06/17 08:36:24;;;;;;;5.80;5.60;;;;;;;-143.83;100.00;62900.06;5027947;28;20013;-61
2022/06/17 08:38:53;;;;;;;5.63;5.43;;;;;;;-143.83;100.00;62900.06;5026249;28;20097;-60
2022/06/17 08:41:32;;;;;;;5.63;5.43;;;;;;;-143.83;100.00;62900.06;5023285;28;20025;-61
2022/06/17 08:44:33;;;;;;;5.88;5.68;;;;;;;-143.83;100.00;62900.06;5030454;28;20036;-59
2022/06/17 08:47:29;;;;;;;5.50;5.30;;;;;;;-143.83;100.00;62900.06;5028987;28;20396;-56
2022/06/17 08:50:22;;;;;;;5.70;5.50;;;;;;;-143.83;100.00;62900.06;5022254;28;20053;-60
2022/06/17 08:53:09;;;;;;;5.55;5.35;;;;;;;-143.83;100.00;62900.06;5026918;28;20401;-61
2022/06/17 08:56:13;;;;;;;5.53;5.32;;;;;;;-143.83;100.00;62900.06;5019825;28;20037;-60
2022/06/17 08:58:59;;;;;;;5.60;5.40;;;;;;;-143.83;100.00;62900.06;5022715;28;20511;-62
2022/06/17 09:01:47;;;;;;;5.65;5.45;;;;;;;-143.83;100.00;62900.06;5030469;28;20128;-61
2022/06/17 09:04:51;;;;;;;5.70;5.50;;;;;;;-143.83;100.00;62900.06;5024780;28;20025;-60
2022/06/17 09:07:38;;;;;;;5.75;5.55;;;;;;;-143.83;100.00;62900.06;5029105;28;20489;-60
2022/06/17 09:10:08;;;;;;;5.60;5.40;;;;;;;-143.83;100.00;62900.06;5019567;28;20046;-61
2022/06/17 09:12:48;;;;;;;5.65;5.45;;;;;;;-143.83;100.00;62900.06;5025694;28;20036;-60
2022/06/17 09:15:32;;;;;;;5.40;5.20;;;;;;;-143.83;100.00;62900.06;5020903;28;20064;-61
2022/06/17 09:18:05;;;;;;;;;;;;;;;-143.83;100.00;62900.06;5033685;28;20029;-60
2022/06/17 09:20:36;;;;;;;5.50;5.30;;;;;;;-143.83;100.00;62900.06;5023447;28;19971;-60
2022/06/17 09:23:05;;;;;;;5.35;5.15;;;;;;;-143.83;100.00;62900.06;5028456;28;20021;-61
2022/06/17 09:25:52;;;;;;;5.60;5.40;;;;;;;-143.83;100.00;62900.06;5026740;28;20037;-61
2022/06/17 09:28:32;;;;;;;5.65;5.45;;;;;;;-143.83;100.00;62900.06;5025264;28;20500;-60
2022/06/17 09:31:25;;;;;;;5.70;5.50;;;;;;;-143.83;100.00;62900.06;5025702;28;20115;-60
2022/06/17 09:34:08;;;;;;;5.70;5.50;;;;;;;-143.83;100.00;62900.06;5028885;28;20408;-60
2022/06/17 09:36:41;;;;;;;5.50;5.30;;;;;;;-143.83;100.00;62900.06;5018232;28;20116;-60
2022/06/17 09:39:41;;;;;;;5.80;5.60;;;;;;;-143.83;100.00;62900.06;5021050;28;20083;-60
2022/06/17 09:42:23;;;;;;;5.80;5.60;;;;;;;-143.83;100.00;62900.06;5026999;28;20044;-60
2022/06/17 09:44:54;;;;;;;5.57;5.38;;;;;;;-143.83;100.00;62900.06;5025072;28;20396;-62
2022/06/17 09:48:09;;;;;;;5.70;5.50;;;;;;;-143.83;100.00;62900.06;5030784;28;20033;-61
2022/06/17 09:50:46;;;;;;;5.70;5.50;;;;;;;-143.83;100.00;62900.06;4972914;28;20045;-62
2022/06/17 09:53:18;;;;;;;5.53;5.32;;;;;;;-143.83;100.00;62900.06;4956903;28;20039;-62
2022/06/17 09:55:50;;;;;;;5.68;5.47;;;;;;;-143.83;100.00;62900.06;5001972;28;20049;-61
2022/06/17 09:58:31;;;;;;;5.70;5.50;;;;;;;-143.83;100.00;62900.06;5030831;28;20097;-61
2022/06/17 10:00:58;;;;;;;5.45;5.25;;;;;;;-143.83;100.00;62900.06;5029712;28;20041;-62
2022/06/17 10:03:31;;;;;;;5.47;5.28;;;;;;;-143.83;100.00;62900.06;5030325;28;20021;-61
2022/06/17 10:06:21;;;;;;;5.60;5.40;;;;;;;-143.83;100.00;62900.06;5033644;28;20025;-61
2022/06/17 10:08:55;;;;;;;5.60;5.40;;;;;;;-143.83;100.00;62900.06;5020999;28;20061;-61
2022/06/17 10:11:42;;;;;;;5.68;5.47;;;;;;;-143.83;100.00;62900.06;5031468;28;20108;-60
2022/06/17 10:14:22;;;;;;;5.50;5.30;;;;;;;-143.83;100.00;62900.06;5026330;28;20056;-61
2022/06/17 10:19:54;;;;;;;;;;;;;;;-143.83;100.00;62900.06;5032135;28;20095;-61
2022/06/17 10:22:45;;;;;;;5.50;5.30;;;;;;;-143.83;100.00;62900.06;5031104;28;20029;-61
2022/06/17 10:25:28;;;;;;;5.70;5.50;;;;;;;-143.83;100.00;62900.06;5042417;28;20404;-61
2022/06/17 10:28:06;;;;;;;5.60;5.40;;;;;;;-143.83;100.00;62900.06;5028686;28;20021;-61
2022/06/17 10:30:59;;;;;;;5.60;5.40;;;;;;;-143.83;100.00;62900.06;5023169;28;20041;-61
2022/06/17 10:33:28;;;;;;;5.47;5.28;;;;;;;-143.83;100.00;62900.06;5029399;28;20091;-61
2022/06/17 10:35:53;;;;;;;5.53;5.32;;;;;;;-143.83;100.00;62900.06;5024385;28;20033;-64
2022/06/17 10:38:25;;;;;;;5.60;5.40;;;;;;;-143.83;100.00;62900.06;5032895;28;20045;-62
2022/06/17 10:40:50;;;;;;;5.50;5.30;;;;;;;-143.83;100.00;62900.06;5028264;28;20048;-64
2022/06/17 10:43:21;;;;;;;5.50;5.30;;;;;;;-143.83;100.00;62900.06;5026885;28;20472;-62
2022/06/17 10:45:48;;;;;;;5.60;5.40;;;;;;;-143.83;100.00;62900.06;5021397;28;20105;-62
2022/06/17 10:48:39;;;;;;;5.60;5.40;;;;;;;-143.83;100.00;62900.06;5023437;28;20057;-63
2022/06/17 10:51:07;;;;;;;5.45;5.25;;;;;;;-143.83;100.00;62900.06;5024738;28;20050;-63
2022/06/17 10:53:46;;;;;;;5.50;5.30;;;;;;;-143.83;100.00;62900.06;5029688;28;20040;-63
2022/06/17 10:56:18;;;;;;;5.68;5.47;;;;;;;-143.83;100.00;62900.06;5027680;28;20029;-62
2022/06/17 10:59:03;;;;;;;5.63;5.43;;;;;;;-143.83;100.00;62900.06;5022669;28;20033;-61
2022/06/17 11:01:56;;;;;;;5.40;5.20;;;;;;;-143.83;100.00;62900.06;5018542;28;20036;-63
2022/06/17 11:04:34;;;;;;;5.60;5.40;;;;;;;-143.83;100.00;62900.06;5014718;28;20039;-62
2022/06/17 11:07:06;;;;;;;5.50;5.30;;;;;;;-143.83;100.00;62900.06;5017455;28;20529;-63
2022/06/17 11:09:37;;;;;;;5.40;5.20;;;;;;;-143.83;100.00;62900.06;5026884;28;20498;-62
2022/06/17 11:12:14;;;;;;;5.45;5.25;;;;;;;-143.83;100.00;62900.06;5028988;28;20083;-62
2022/06/17 11:14:52;;;;;;;5.65;5.45;;;;;;;-143.83;100.00;62900.06;5026009;28;20119;-62
2022/06/17 11:17:40;;;;;;;5.47;5.28;;;;;;;-143.83;100.00;62900.06;5028533;28;20598;-64
2022/06/17 11:20:35;;;;;;;5.40;5.20;;;;;;;-143.83;100.00;62900.06;5027585;28;20048;-63
2022/06/17 11:23:14;;;;;;;5.50;5.30;;;;;;;-143.83;100.00;62900.06;5027281;28;20034;-60
2022/06/17 11:25:41;;;;;;;5.50;5.30;;;;;;;-143.83;100.00;62900.06;5034934;28;20037;-63
2022/06/17 11:28:22;;;;;;;5.57;5.38;;;;;;;-143.83;100.00;62900.06;5019467;28;20033;-62
2022/06/17 11:31:13;;;;;;;5.40;5.20;;;;;;;-143.83;100.00;62900.06;5019751;28;20032;-61
2022/06/17 11:33:52;;;;;;;5.30;5.10;;;;;;;-143.83;100.00;62900.06;5025192;28;20565;-62
2022/06/17 11:36:33;;;;;;;5.30;5.10;;;;;;;-143.83;100.00;62900.06;5022411;28;20029;-61
2022/06/17 11:39:27;;;;;;;5.47;5.28;;;;;;;-143.83;100.00;62900.06;5021727;28;20560;-62
2022/06/17 11:41:53;;;;;;;5.50;5.30;;;;;;;-143.83;100.00;62900.06;5029500;28;20033;-62